Pikeville, NC

3:26 PM EDT on August 28, 2015 (GMT -0400)
Goldsboro-Wayne Municipal | | Change Station
CLOSE
Current Station
Airport
Location: Goldsboro,
Elevation: 135 ft
Nearby Weather Stations

Elev 135 ft 35.46 °N, 77.96 °W | Updated 11 minutes ago

Clear
Clear
84 °F
Feels Like 84 °F
N
6
Wind Variable Wind from ENE

Today
High -- | Low -- °F
--% Chance of Precip.
Yesterday
High -- | Low -- °F
Precip. -- in
6:40 AM 7:44 PM
Waxing Gibbous, 99% visible
Pressure 30.16 in
Visibility 10.0 miles
Clouds Clear
Heat Index 84 °F
Dew Point 61 °F
Humidity 46%
Rainfall 0.00 in
Snow Depth Not available.
UV 8 out of 12
Pollen 7.90 out of 12
Air Quality Not available.
Flu Activity Not available.
METAR KGWW 281915Z AUTO 07005KT 10SM CLR 29/16 A3016 RMK AO2 T02890162
Pressure 30.16 in
Visibility 10.0 miles
Clouds Clear
Heat Index 84 °F
Dew Point 61 °F
Humidity 46%
Rainfall 0.00 in
Snow Depth Not available.
UV 8 out of 12
Pollen 7.90 out of 12
Air Quality Not available.
Flu Activity Not available.
METAR KGWW 281915Z AUTO 07005KT 10SM CLR 29/16 A3016 RMK AO2 T02890162
Erika has become very unorganized in the face of strong wind shear in the eastern Caribbean Sea. The storm will pass directly over mountainous Hispaniola today, likely weakening it further. If the storm remains intact, it could reach an area favorable for strengthening before moving onto Florida by early next week. Follow the live blog

10-Day Weather Forecast

×

Almanac

Astronomy

Aug. 28, 2015 Rise Set
Actual Time
Civil Twilight
Nautical Twilight
Astronomical Twilight
Moon
Length of Visible Light
Length of Day
Tomorrow will be .
, % of the Moon is Illuminated

Today's Extremes

State Highs State Lows

Community

WunderPhotos

Upload Photos

1,850,462 photos uploaded!

WunderBlogs® & News

Nearby

Air Quality

  Air Quality AQ Index Pollutant
Not available.

Snow Depth

Station Depth Elevation

Earthquake Activity

City Distance Mag. Time & Date
Minimum magnitude displayed is 2.5.

Coastal Water Temperatures

Place Temperature

Stations

Nearby Weather Stations

Station Location Temp. Windchill Dew Point Humidity Wind Precip. Elev Updated Type